Delray Beach, FL

1:44 PM EST on February 09, 2016 (GMT -0500)
Brads Bedding Plants Inc. | | Change Station
CLOSE
Current Station
Personal Weather Station
Location: Delray Beach, FL
Elevation: 19 ft
Nearby Weather Stations

Elev 19 ft 26.47 °N, 80.18 °W | Updated 2 days ago

Partly Cloudy
Partly Cloudy
62 °F
Feels Like 62 °F
N
18
Wind Variable Wind from West
Gusts 25 mph

Today
High -- | Low -- °F
--% Chance of Precip.
Yesterday
High -- | Low -- °F
Precip. -- in
Pressure 30.06 in
Visibility 10.0 miles
Clouds Clear
Dew Point 43 °F
Humidity 49%
Rainfall in
Snow Depth Not available.
7:01 AM 6:08 PM
New Moon, 2% visible
METAR KPMP 091753Z 29013KT 10SM CLR 16/06 A3006 RMK AO2 SLP179 T01560061 10161 20144 58012
Pressure 30.06 in
Visibility 10.0 miles
Clouds Clear
Dew Point 43 °F
Humidity 49%
Rainfall in
Snow Depth Not available.
7:01 AM 6:08 PM
New Moon, 2% visible
METAR KPMP 091753Z 29013KT 10SM CLR 16/06 A3006 RMK AO2 SLP179 T01560061 10161 20144 58012

10-Day Weather Forecast

Almanac

Astronomy

Feb. 09, 2016 Rise Set
Actual Time
Civil Twilight
Nautical Twilight
Astronomical Twilight
Moon
Length of Visible Light
Length of Day
Tomorrow will be .
, % of the Moon is Illuminated

Today's Extremes

State Highs State Lows

Community

WunderPhotos

Upload Photos

1,891,660 photos uploaded!

WunderBlog® & News

Nearby

Air Quality

  Air Quality AQ Index Pollutant
Not available.

Snow Depth

Station Depth Elevation

Earthquake Activity

City Distance Mag. Time & Date
Minimum magnitude displayed is 2.5.

Coastal Water Temperatures

Place Temperature

Stations

Nearby Weather Stations

Station Location Temp. Windchill Dew Point Humidity Wind Precip. Elev Updated Type
                   

Watches & Warnings

There are currently no watches in effect.